sensor_id;sensor_type;location;lat;lon;timestamp;pressure;altitude;pressure_sealevel;temperature;humidity
50380;BME280;37474;59.468;18.040;2023-02-22T00:01:16;101741.53;;;-3.80;92.32
50380;BME280;37474;59.468;18.040;2023-02-22T00:04:04;101734.31;;;-3.63;91.05
50380;BME280;37474;59.468;18.040;2023-02-22T00:06:34;101730.69;;;-3.74;92.22
50380;BME280;37474;59.468;18.040;2023-02-22T00:09:04;101728.56;;;-3.93;91.54
50380;BME280;37474;59.468;18.040;2023-02-22T00:11:34;101754.19;;;-3.80;92.03
50380;BME280;37474;59.468;18.040;2023-02-22T00:14:08;101742.47;;;-3.76;90.58
50380;BME280;37474;59.468;18.040;2023-02-22T00:16:37;101747.41;;;-3.82;90.32
50380;BME280;37474;59.468;18.040;2023-02-22T00:19:05;101713.31;;;-3.95;90.81
50380;BME280;37474;59.468;18.040;2023-02-22T00:21:37;101747.53;;;-3.76;90.86
50380;BME280;37474;59.468;18.040;2023-02-22T00:24:07;101737.41;;;-3.76;90.21
50380;BME280;37474;59.468;18.040;2023-02-22T00:26:51;101758.50;;;-3.77;89.40
50380;BME280;37474;59.468;18.040;2023-02-22T00:29:23;101737.19;;;-3.85;90.50
50380;BME280;37474;59.468;18.040;2023-02-22T00:31:54;101760.94;;;-3.80;90.18
50380;BME280;37474;59.468;18.040;2023-02-22T00:34:22;101757.81;;;-3.70;90.16
50380;BME280;37474;59.468;18.040;2023-02-22T00:36:52;101756.84;;;-3.75;89.60
50380;BME280;37474;59.468;18.040;2023-02-22T00:39:24;101762.50;;;-3.85;90.20
50380;BME280;37474;59.468;18.040;2023-02-22T00:41:52;101757.69;;;-3.76;90.31
50380;BME280;37474;59.468;18.040;2023-02-22T00:44:20;101758.31;;;-3.83;90.66
50380;BME280;37474;59.468;18.040;2023-02-22T00:46:52;101764.38;;;-3.78;89.67
50380;BME280;37474;59.468;18.040;2023-02-22T00:49:21;101764.44;;;-3.77;90.62
50380;BME280;37474;59.468;18.040;2023-02-22T00:51:48;101730.13;;;-3.99;90.23
50380;BME280;37474;59.468;18.040;2023-02-22T00:54:20;101766.97;;;-3.75;89.47
50380;BME280;37474;59.468;18.040;2023-02-22T00:56:52;101769.63;;;-3.70;90.16
50380;BME280;37474;59.468;18.040;2023-02-22T00:59:27;101757.41;;;-3.88;91.33
50380;BME280;37474;59.468;18.040;2023-02-22T01:01:58;101779.38;;;-3.87;91.01
50380;BME280;37474;59.468;18.040;2023-02-22T01:04:29;101735.41;;;-4.24;92.44
50380;BME280;37474;59.468;18.040;2023-02-22T01:06:57;101738.06;;;-4.18;92.11
50380;BME280;37474;59.468;18.040;2023-02-22T01:09:27;101785.75;;;-3.67;91.46
50380;BME280;37474;59.468;18.040;2023-02-22T01:11:56;101780.38;;;-3.81;91.18
50380;BME280;37474;59.468;18.040;2023-02-22T01:14:25;101779.63;;;-3.77;90.97
50380;BME280;37474;59.468;18.040;2023-02-22T01:16:57;101763.19;;;-3.92;92.42
50380;BME280;37474;59.468;18.040;2023-02-22T01:19:25;101776.03;;;-3.85;90.84
50380;BME280;37474;59.468;18.040;2023-02-22T01:21:54;101790.47;;;-3.82;91.18
50380;BME280;37474;59.468;18.040;2023-02-22T01:24:31;101794.41;;;-3.93;92.71
50380;BME280;37474;59.468;18.040;2023-02-22T01:26:59;101793.00;;;-3.82;92.69
50380;BME280;37474;59.468;18.040;2023-02-22T01:29:30;101798.97;;;-3.80;93.14
50380;BME280;37474;59.468;18.040;2023-02-22T01:31:59;101797.94;;;-3.88;92.48
50380;BME280;37474;59.468;18.040;2023-02-22T01:34:28;101796.28;;;-3.86;92.76
50380;BME280;37474;59.468;18.040;2023-02-22T01:37:00;101803.06;;;-3.85;92.86
50380;BME280;37474;59.468;18.040;2023-02-22T01:39:32;101798.97;;;-3.79;91.73
50380;BME280;37474;59.468;18.040;2023-02-22T01:42:02;101798.97;;;-3.79;91.86
50380;BME280;37474;59.468;18.040;2023-02-22T01:44:33;101804.75;;;-3.84;93.59
50380;BME280;37474;59.468;18.040;2023-02-22T01:47:05;101800.53;;;-3.84;92.07
50380;BME280;37474;59.468;18.040;2023-02-22T01:49:38;101810.38;;;-3.96;93.82
50380;BME280;37474;59.468;18.040;2023-02-22T01:52:13;101819.81;;;-3.90;93.13
50380;BME280;37474;59.468;18.040;2023-02-22T01:54:48;101812.72;;;-4.04;93.49
50380;BME280;37474;59.468;18.040;2023-02-22T01:57:23;101819.34;;;-4.09;94.80
50380;BME280;37474;59.468;18.040;2023-02-22T01:59:58;101818.22;;;-3.87;93.52
50380;BME280;37474;59.468;18.040;2023-02-22T02:02:27;101816.66;;;-3.82;92.35
50380;BME280;37474;59.468;18.040;2023-02-22T02:04:59;101815.41;;;-3.97;93.28
50380;BME280;37474;59.468;18.040;2023-02-22T02:07:28;101824.75;;;-3.95;94.15
50380;BME280;37474;59.468;18.040;2023-02-22T02:10:00;101799.69;;;-4.17;94.05
50380;BME280;37474;59.468;18.040;2023-02-22T02:12:34;101820.34;;;-4.04;94.86
50380;BME280;37474;59.468;18.040;2023-02-22T02:15:18;101823.88;;;-3.97;94.44
50380;BME280;37474;59.468;18.040;2023-02-22T02:17:52;101821.00;;;-4.11;94.90
50380;BME280;37474;59.468;18.040;2023-02-22T02:20:25;101811.03;;;-4.05;94.53
50380;BME280;37474;59.468;18.040;2023-02-22T02:23:07;101830.47;;;-4.04;95.08
50380;BME280;37474;59.468;18.040;2023-02-22T02:26:19;101819.50;;;-4.03;95.42
50380;BME280;37474;59.468;18.040;2023-02-22T02:29:19;101820.66;;;-4.23;96.36
50380;BME280;37474;59.468;18.040;2023-02-22T02:32:20;101831.19;;;-4.08;95.52
50380;BME280;37474;59.468;18.040;2023-02-22T02:34:57;101827.97;;;-4.02;95.28
50380;BME280;37474;59.468;18.040;2023-02-22T02:37:34;101826.22;;;-4.05;95.06
50380;BME280;37474;59.468;18.040;2023-02-22T02:40:11;101827.78;;;-4.10;96.00
50380;BME280;37474;59.468;18.040;2023-02-22T02:42:54;101824.75;;;-3.95;95.93
50380;BME280;37474;59.468;18.040;2023-02-22T02:45:29;101826.81;;;-4.13;96.26
50380;BME280;37474;59.468;18.040;2023-02-22T02:48:04;101822.19;;;-4.28;98.03
50380;BME280;37474;59.468;18.040;2023-02-22T02:50:40;101824.38;;;-4.42;97.77
50380;BME280;37474;59.468;18.040;2023-02-22T02:53:30;101830.63;;;-4.29;97.93
50380;BME280;37474;59.468;18.040;2023-02-22T02:56:04;101833.88;;;-4.02;96.52
50380;BME280;37474;59.468;18.040;2023-02-22T02:58:33;101833.38;;;-4.21;96.64
50380;BME280;37474;59.468;18.040;2023-02-22T03:01:02;101831.13;;;-4.11;96.60
50380;BME280;37474;59.468;18.040;2023-02-22T03:03:47;101832.59;;;-4.19;96.91
50380;BME280;37474;59.468;18.040;2023-02-22T03:06:40;101839.78;;;-4.03;96.23
50380;BME280;37474;59.468;18.040;2023-02-22T03:09:28;101842.88;;;-4.13;97.06
50380;BME280;37474;59.468;18.040;2023-02-22T03:12:07;101838.91;;;-4.03;97.34
50380;BME280;37474;59.468;18.040;2023-02-22T03:14:41;101849.16;;;-3.99;96.45
50380;BME280;37474;59.468;18.040;2023-02-22T03:17:31;101850.91;;;-4.28;97.62
50380;BME280;37474;59.468;18.040;2023-02-22T03:20:12;101851.44;;;-4.08;97.30
50380;BME280;37474;59.468;18.040;2023-02-22T03:22:50;101850.56;;;-4.10;96.59
50380;BME280;37474;59.468;18.040;2023-02-22T03:25:27;101854.72;;;-4.12;97.31
50380;BME280;37474;59.468;18.040;2023-02-22T03:28:03;101862.88;;;-4.22;98.41
50380;BME280;37474;59.468;18.040;2023-02-22T03:30:36;101846.28;;;-4.44;99.02
50380;BME280;37474;59.468;18.040;2023-02-22T03:33:10;101874.38;;;-4.33;99.68
50380;BME280;37474;59.468;18.040;2023-02-22T03:35:46;101834.66;;;-4.36;99.32
50380;BME280;37474;59.468;18.040;2023-02-22T03:38:19;101824.38;;;-4.42;98.46
50380;BME280;37474;59.468;18.040;2023-02-22T03:40:51;101864.16;;;-4.38;100.00
50380;BME280;37474;59.468;18.040;2023-02-22T03:43:25;101881.81;;;-4.39;100.00
50380;BME280;37474;59.468;18.040;2023-02-22T03:45:57;101874.81;;;-4.18;100.00
50380;BME280;37474;59.468;18.040;2023-02-22T03:48:35;101854.41;;;-4.54;100.00
50380;BME280;37474;59.468;18.040;2023-02-22T03:51:09;101881.38;;;-4.25;100.00
50380;BME280;37474;59.468;18.040;2023-02-22T03:53:45;101891.97;;;-4.08;99.89
50380;BME280;37474;59.468;18.040;2023-02-22T03:56:19;101888.78;;;-4.01;99.77
50380;BME280;37474;59.468;18.040;2023-02-22T03:58:51;101887.06;;;-4.02;99.05
50380;BME280;37474;59.468;18.040;2023-02-22T04:01:20;101885.25;;;-4.06;99.86
50380;BME280;37474;59.468;18.040;2023-02-22T04:03:49;101897.13;;;-4.05;99.75
50380;BME280;37474;59.468;18.040;2023-02-22T04:06:20;101864.69;;;-4.18;100.00
50380;BME280;37474;59.468;18.040;2023-02-22T04:08:50;101857.47;;;-4.04;99.98
50380;BME280;37474;59.468;18.040;2023-02-22T04:11:18;101857.06;;;-4.19;100.00
50380;BME280;37474;59.468;18.040;2023-02-22T04:13:48;101891.28;;;-4.02;100.00
50380;BME280;37474;59.468;18.040;2023-02-22T04:16:17;101892.25;;;-3.97;100.00
50380;BME280;37474;59.468;18.040;2023-02-22T04:18:46;101898.84;;;-4.04;100.00
50380;BME280;37474;59.468;18.040;2023-02-22T04:21:17;101894.81;;;-3.95;100.00
50380;BME280;37474;59.468;18.040;2023-02-22T04:23:47;101883.94;;;-4.23;100.00
50380;BME280;37474;59.468;18.040;2023-02-22T04:26:15;101897.69;;;-3.83;100.00
50380;BME280;37474;59.468;18.040;2023-02-22T04:28:45;101898.75;;;-4.07;100.00
50380;BME280;37474;59.468;18.040;2023-02-22T04:31:13;101897.69;;;-4.15;100.00
50380;BME280;37474;59.468;18.040;2023-02-22T04:33:42;101908.97;;;-4.04;100.00
50380;BME280;37474;59.468;18.040;2023-02-22T04:36:12;101915.00;;;-4.30;100.00
50380;BME280;37474;59.468;18.040;2023-02-22T04:38:44;101905.91;;;-3.92;100.00
50380;BME280;37474;59.468;18.040;2023-02-22T04:41:12;101912.56;;;-3.95;100.00
50380;BME280;37474;59.468;18.040;2023-02-22T04:43:43;101909.31;;;-3.91;100.00
50380;BME280;37474;59.468;18.040;2023-02-22T04:46:14;101867.50;;;-4.07;100.00
50380;BME280;37474;59.468;18.040;2023-02-22T04:48:42;101892.94;;;-4.34;100.00
50380;BME280;37474;59.468;18.040;2023-02-22T04:51:12;101929.25;;;-4.04;100.00
50380;BME280;37474;59.468;18.040;2023-02-22T04:53:44;101927.44;;;-4.08;100.00
50380;BME280;37474;59.468;18.040;2023-02-22T04:56:12;101931.44;;;-3.84;100.00
50380;BME280;37474;59.468;18.040;2023-02-22T04:58:42;101933.94;;;-3.86;100.00
50380;BME280;37474;59.468;18.040;2023-02-22T05:01:13;101933.91;;;-3.87;100.00
50380;BME280;37474;59.468;18.040;2023-02-22T05:03:42;101898.47;;;-4.47;100.00
50380;BME280;37474;59.468;18.040;2023-02-22T05:06:12;101921.22;;;-4.49;100.00
50380;BME280;37474;59.468;18.040;2023-02-22T05:08:42;101953.34;;;-4.46;100.00
50380;BME280;37474;59.468;18.040;2023-02-22T05:11:11;101946.44;;;-4.22;100.00
50380;BME280;37474;59.468;18.040;2023-02-22T05:13:41;101960.47;;;-4.33;100.00
50380;BME280;37474;59.468;18.040;2023-02-22T05:16:11;101955.72;;;-4.51;100.00
50380;BME280;37474;59.468;18.040;2023-02-22T05:18:39;101949.97;;;-4.45;100.00
50380;BME280;37474;59.468;18.040;2023-02-22T05:21:09;101965.72;;;-3.97;100.00
50380;BME280;37474;59.468;18.040;2023-02-22T05:23:41;101961.00;;;-4.15;100.00
50380;BME280;37474;59.468;18.040;2023-02-22T05:26:10;101945.69;;;-4.19;100.00
50380;BME280;37474;59.468;18.040;2023-02-22T05:28:41;101957.66;;;-4.14;100.00
50380;BME280;37474;59.468;18.040;2023-02-22T05:31:28;101952.59;;;-4.14;100.00
50380;BME280;37474;59.468;18.040;2023-02-22T05:33:56;101936.44;;;-4.47;100.00
50380;BME280;37474;59.468;18.040;2023-02-22T05:36:26;101943.72;;;-4.00;100.00
50380;BME280;37474;59.468;18.040;2023-02-22T05:38:56;101961.00;;;-3.85;100.00
50380;BME280;37474;59.468;18.040;2023-02-22T05:41:25;101965.78;;;-4.24;100.00
50380;BME280;37474;59.468;18.040;2023-02-22T05:43:55;101978.63;;;-4.46;100.00
50380;BME280;37474;59.468;18.040;2023-02-22T05:46:25;101969.72;;;-4.05;100.00
50380;BME280;37474;59.468;18.040;2023-02-22T05:48:52;101984.13;;;-4.33;100.00
50380;BME280;37474;59.468;18.040;2023-02-22T05:51:22;101975.56;;;-4.36;100.00
50380;BME280;37474;59.468;18.040;2023-02-22T05:53:52;101982.53;;;-4.29;100.00
50380;BME280;37474;59.468;18.040;2023-02-22T05:56:25;101971.13;;;-3.85;100.00
50380;BME280;37474;59.468;18.040;2023-02-22T05:58:57;101982.50;;;-4.31;100.00
50380;BME280;37474;59.468;18.040;2023-02-22T06:01:25;101981.31;;;-4.42;100.00
50380;BME280;37474;59.468;18.040;2023-02-22T06:03:53;101981.22;;;-4.45;100.00
50380;BME280;37474;59.468;18.040;2023-02-22T06:06:24;101984.97;;;-4.61;100.00
50380;BME280;37474;59.468;18.040;2023-02-22T06:08:52;101974.06;;;-4.30;100.00
50380;BME280;37474;59.468;18.040;2023-02-22T06:11:20;101969.97;;;-4.55;100.00
50380;BME280;37474;59.468;18.040;2023-02-22T06:13:53;101989.69;;;-4.16;100.00
50380;BME280;37474;59.468;18.040;2023-02-22T06:16:21;101987.53;;;-4.32;100.00
50380;BME280;37474;59.468;18.040;2023-02-22T06:18:49;101990.84;;;-4.33;100.00
50380;BME280;37474;59.468;18.040;2023-02-22T06:21:21;101994.00;;;-4.40;100.00
50380;BME280;37474;59.468;18.040;2023-02-22T06:23:49;101975.47;;;-4.11;100.00
50380;BME280;37474;59.468;18.040;2023-02-22T06:26:17;101989.81;;;-3.81;100.00
50380;BME280;37474;59.468;18.040;2023-02-22T06:28:48;101988.81;;;-4.16;100.00
50380;BME280;37474;59.468;18.040;2023-02-22T06:31:18;101995.47;;;-4.20;100.00
50380;BME280;37474;59.468;18.040;2023-02-22T06:33:46;101996.44;;;-4.16;100.00
50380;BME280;37474;59.468;18.040;2023-02-22T06:36:19;102001.56;;;-4.13;100.00
50380;BME280;37474;59.468;18.040;2023-02-22T06:38:47;101963.75;;;-4.37;100.00
50380;BME280;37474;59.468;18.040;2023-02-22T06:41:14;102004.22;;;-4.09;100.00
50380;BME280;37474;59.468;18.040;2023-02-22T06:43:46;102008.03;;;-3.63;100.00
50380;BME280;37474;59.468;18.040;2023-02-22T06:46:14;101976.81;;;-3.62;100.00
50380;BME280;37474;59.468;18.040;2023-02-22T06:48:45;102006.28;;;-3.65;100.00
50380;BME280;37474;59.468;18.040;2023-02-22T06:51:15;102005.94;;;-3.78;100.00
50380;BME280;37474;59.468;18.040;2023-02-22T06:53:43;101973.53;;;-3.89;100.00
50380;BME280;37474;59.468;18.040;2023-02-22T06:56:13;102007.78;;;-3.72;100.00
50380;BME280;37474;59.468;18.040;2023-02-22T06:58:42;102007.91;;;-3.67;100.00
50380;BME280;37474;59.468;18.040;2023-02-22T07:01:10;102006.97;;;-3.39;100.00
50380;BME280;37474;59.468;18.040;2023-02-22T07:03:41;102008.31;;;-3.21;100.00
50380;BME280;37474;59.468;18.040;2023-02-22T07:06:12;102007.47;;;-3.21;100.00
50380;BME280;37474;59.468;18.040;2023-02-22T07:08:39;102002.59;;;-3.45;100.00
50380;BME280;37474;59.468;18.040;2023-02-22T07:11:09;102006.00;;;-3.45;100.00
50380;BME280;37474;59.468;18.040;2023-02-22T07:13:39;102008.09;;;-3.28;100.00
50380;BME280;37474;59.468;18.040;2023-02-22T07:16:07;101992.31;;;-3.18;100.00
50380;BME280;37474;59.468;18.040;2023-02-22T07:18:35;102016.72;;;-2.88;100.00
50380;BME280;37474;59.468;18.040;2023-02-22T07:21:04;102014.63;;;-3.05;99.39
50380;BME280;37474;59.468;18.040;2023-02-22T07:23:34;102000.59;;;-3.25;100.00
50380;BME280;37474;59.468;18.040;2023-02-22T07:26:05;102009.47;;;-3.08;100.00
50380;BME280;37474;59.468;18.040;2023-02-22T07:28:34;102006.25;;;-3.01;99.50
50380;BME280;37474;59.468;18.040;2023-02-22T07:31:02;102004.84;;;-3.24;99.50
50380;BME280;37474;59.468;18.040;2023-02-22T07:33:31;102010.31;;;-3.40;100.00
50380;BME280;37474;59.468;18.040;2023-02-22T07:36:03;102010.28;;;-3.10;99.17
50380;BME280;37474;59.468;18.040;2023-02-22T07:39:09;102010.72;;;-3.25;99.26
50380;BME280;37474;59.468;18.040;2023-02-22T07:41:37;102022.88;;;-3.13;98.00
50380;BME280;37474;59.468;18.040;2023-02-22T07:44:05;102025.56;;;-3.07;98.81
50380;BME280;37474;59.468;18.040;2023-02-22T07:46:35;102026.19;;;-3.16;98.74
50380;BME280;37474;59.468;18.040;2023-02-22T07:49:09;102026.97;;;-3.19;96.74
50380;BME280;37474;59.468;18.040;2023-02-22T07:51:39;102008.50;;;-3.13;96.97
50380;BME280;37474;59.468;18.040;2023-02-22T07:54:08;102037.22;;;-2.79;95.54
50380;BME280;37474;59.468;18.040;2023-02-22T07:56:36;102035.78;;;-3.04;95.60
50380;BME280;37474;59.468;18.040;2023-02-22T07:59:06;102043.84;;;-2.86;95.42
50380;BME280;37474;59.468;18.040;2023-02-22T08:01:36;102024.16;;;-2.95;95.42
50380;BME280;37474;59.468;18.040;2023-02-22T08:04:04;102044.97;;;-2.75;94.34
50380;BME280;37474;59.468;18.040;2023-02-22T08:06:34;102039.91;;;-2.73;94.66
50380;BME280;37474;59.468;18.040;2023-02-22T08:09:02;102048.78;;;-2.56;93.57
50380;BME280;37474;59.468;18.040;2023-02-22T08:11:31;102050.44;;;-2.58;92.96
50380;BME280;37474;59.468;18.040;2023-02-22T08:13:59;102051.38;;;-2.89;94.13
50380;BME280;37474;59.468;18.040;2023-02-22T08:16:27;102059.25;;;-2.78;94.02
50380;BME280;37474;59.468;18.040;2023-02-22T08:18:55;102059.16;;;-2.48;92.78
50380;BME280;37474;59.468;18.040;2023-02-22T08:21:26;102067.50;;;-2.52;92.64
50380;BME280;37474;59.468;18.040;2023-02-22T08:23:55;102057.59;;;-2.04;91.79
50380;BME280;37474;59.468;18.040;2023-02-22T08:26:23;102058.19;;;-1.76;90.06
50380;BME280;37474;59.468;18.040;2023-02-22T08:28:53;102068.13;;;-1.87;89.52
50380;BME280;37474;59.468;18.040;2023-02-22T08:31:20;102030.41;;;-2.06;90.44
50380;BME280;37474;59.468;18.040;2023-02-22T08:33:48;102065.97;;;-1.67;87.14
50380;BME280;37474;59.468;18.040;2023-02-22T08:36:16;102036.03;;;-1.82;86.58
50380;BME280;37474;59.468;18.040;2023-02-22T08:38:45;102042.59;;;-1.92;88.04
50380;BME280;37474;59.468;18.040;2023-02-22T08:41:12;102069.84;;;-1.84;87.43
50380;BME280;37474;59.468;18.040;2023-02-22T08:43:40;102081.41;;;-1.58;85.48
50380;BME280;37474;59.468;18.040;2023-02-22T08:46:10;102075.31;;;-1.22;84.40
50380;BME280;37474;59.468;18.040;2023-02-22T08:48:38;102079.00;;;-1.52;82.60
50380;BME280;37474;59.468;18.040;2023-02-22T08:51:05;102082.19;;;-1.62;84.91
50380;BME280;37474;59.468;18.040;2023-02-22T08:53:33;102076.03;;;-2.13;85.60
50380;BME280;37474;59.468;18.040;2023-02-22T08:56:01;102076.09;;;-2.47;88.34
50380;BME280;37474;59.468;18.040;2023-02-22T08:58:32;102077.78;;;-2.10;86.67
50380;BME280;37474;59.468;18.040;2023-02-22T09:01:01;102048.16;;;-2.47;87.57
50380;BME280;37474;59.468;18.040;2023-02-22T09:03:30;102027.88;;;-2.46;85.51
50380;BME280;37474;59.468;18.040;2023-02-22T09:06:01;102079.63;;;-2.03;87.06
50380;BME280;37474;59.468;18.040;2023-02-22T09:08:32;102046.41;;;-2.50;85.09
50380;BME280;37474;59.468;18.040;2023-02-22T09:10:59;102076.03;;;-2.13;84.34
50380;BME280;37474;59.468;18.040;2023-02-22T09:13:29;102076.97;;;-2.09;82.95
50380;BME280;37474;59.468;18.040;2023-02-22T09:15:57;102076.09;;;-2.09;85.41
50380;BME280;37474;59.468;18.040;2023-02-22T09:18:26;102066.69;;;-2.14;85.53
50380;BME280;37474;59.468;18.040;2023-02-22T09:21:11;102065.75;;;-2.17;84.50
50380;BME280;37474;59.468;18.040;2023-02-22T09:23:42;102066.66;;;-1.76;81.81
50380;BME280;37474;59.468;18.040;2023-02-22T09:26:09;102076.88;;;-1.73;80.11
50380;BME280;37474;59.468;18.040;2023-02-22T09:28:39;102074.69;;;-2.34;82.58
50380;BME280;37474;59.468;18.040;2023-02-22T09:31:07;102076.97;;;-2.45;82.85
50380;BME280;37474;59.468;18.040;2023-02-22T09:33:35;102077.88;;;-2.78;84.79
50380;BME280;37474;59.468;18.040;2023-02-22T09:36:06;102080.59;;;-2.72;85.27
50380;BME280;37474;59.468;18.040;2023-02-22T09:38:38;102083.13;;;-2.72;85.10
50380;BME280;37474;59.468;18.040;2023-02-22T09:41:14;102073.63;;;-2.79;84.96
50380;BME280;37474;59.468;18.040;2023-02-22T09:43:50;102088.25;;;-2.70;83.93
50380;BME280;37474;59.468;18.040;2023-02-22T09:46:26;102085.75;;;-2.67;83.53
50380;BME280;37474;59.468;18.040;2023-02-22T09:49:04;102084.38;;;-2.18;81.07
50380;BME280;37474;59.468;18.040;2023-02-22T09:51:40;102091.34;;;-2.46;81.75
50380;BME280;37474;59.468;18.040;2023-02-22T09:54:16;102091.41;;;-2.06;80.21
50380;BME280;37474;59.468;18.040;2023-02-22T09:56:49;102095.59;;;-2.45;81.25
50380;BME280;37474;59.468;18.040;2023-02-22T09:59:24;102095.81;;;-2.37;79.75
50380;BME280;37474;59.468;18.040;2023-02-22T10:02:00;102062.41;;;-2.54;79.86
50380;BME280;37474;59.468;18.040;2023-02-22T10:04:40;102095.97;;;-2.29;78.76
50380;BME280;37474;59.468;18.040;2023-02-22T10:07:16;102068.84;;;-2.30;78.23
50380;BME280;37474;59.468;18.040;2023-02-22T10:09:48;102093.03;;;-2.10;78.14
50380;BME280;37474;59.468;18.040;2023-02-22T10:12:24;102057.38;;;-2.15;77.05
50380;BME280;37474;59.468;18.040;2023-02-22T10:15:25;102094.63;;;-1.76;78.33
50380;BME280;37474;59.468;18.040;2023-02-22T10:18:04;102101.03;;;-1.93;79.16
50380;BME280;37474;59.468;18.040;2023-02-22T10:20:47;102096.78;;;-1.52;77.65
50380;BME280;37474;59.468;18.040;2023-02-22T10:23:25;102088.03;;;-1.22;74.73
50380;BME280;37474;59.468;18.040;2023-02-22T10:26:12;102085.88;;;-1.46;77.07
50380;BME280;37474;59.468;18.040;2023-02-22T10:28:51;102088.72;;;-1.33;73.56
50380;BME280;37474;59.468;18.040;2023-02-22T10:31:26;102089.59;;;-1.30;73.54
50380;BME280;37474;59.468;18.040;2023-02-22T10:34:01;102096.56;;;-1.22;74.77
50380;BME280;37474;59.468;18.040;2023-02-22T10:36:33;102086.91;;;-0.93;73.50
50380;BME280;37474;59.468;18.040;2023-02-22T10:39:14;102093.22;;;-1.18;71.89
50380;BME280;37474;59.468;18.040;2023-02-22T10:41:54;102090.75;;;-1.13;72.75
50380;BME280;37474;59.468;18.040;2023-02-22T10:44:25;102095.38;;;-0.94;72.98
50380;BME280;37474;59.468;18.040;2023-02-22T10:46:57;102091.56;;;-1.60;75.99
50380;BME280;37474;59.468;18.040;2023-02-22T10:49:27;102089.47;;;-1.37;74.57
50380;BME280;37474;59.468;18.040;2023-02-22T10:52:02;102092.13;;;-1.73;72.72
50380;BME280;37474;59.468;18.040;2023-02-22T10:54:32;102098.03;;;-1.75;73.97
50380;BME280;37474;59.468;18.040;2023-02-22T10:57:04;102088.63;;;-1.36;73.00
50380;BME280;37474;59.468;18.040;2023-02-22T10:59:34;102091.63;;;-1.13;71.55
50380;BME280;37474;59.468;18.040;2023-02-22T11:02:17;102061.06;;;-1.60;73.39
50380;BME280;37474;59.468;18.040;2023-02-22T11:04:50;102088.63;;;-1.37;71.37
50380;BME280;37474;59.468;18.040;2023-02-22T11:07:21;102099.84;;;-1.27;73.89
50380;BME280;37474;59.468;18.040;2023-02-22T11:09:52;102094.31;;;-1.05;73.71
50380;BME280;37474;59.468;18.040;2023-02-22T11:12:28;102042.41;;;-1.13;69.86
50380;BME280;37474;59.468;18.040;2023-02-22T11:15:24;102088.13;;;-0.71;69.58
50380;BME280;37474;59.468;18.040;2023-02-22T11:17:55;102089.56;;;-0.85;69.92
50380;BME280;37474;59.468;18.040;2023-02-22T11:20:30;102091.63;;;-1.11;70.60
50380;BME280;37474;59.468;18.040;2023-02-22T11:23:02;102096.78;;;-1.08;69.85
50380;BME280;37474;59.468;18.040;2023-02-22T11:25:35;102062.56;;;-1.25;71.02
50380;BME280;37474;59.468;18.040;2023-02-22T11:28:10;102093.75;;;-0.89;69.79
50380;BME280;37474;59.468;18.040;2023-02-22T11:30:43;102098.53;;;-0.57;68.86
50380;BME280;37474;59.468;18.040;2023-02-22T11:33:17;102091.56;;;-0.67;70.53
50380;BME280;37474;59.468;18.040;2023-02-22T11:35:51;102096.88;;;-0.54;70.44
50380;BME280;37474;59.468;18.040;2023-02-22T11:38:20;102101.41;;;-0.36;66.48
50380;BME280;37474;59.468;18.040;2023-02-22T11:41:13;102097.59;;;-0.62;71.35
50380;BME280;37474;59.468;18.040;2023-02-22T11:43:46;102086.44;;;-0.14;67.63
50380;BME280;37474;59.468;18.040;2023-02-22T11:46:17;102104.06;;;0.33;64.54
50380;BME280;37474;59.468;18.040;2023-02-22T11:48:56;102100.16;;;0.61;63.70
50380;BME280;37474;59.468;18.040;2023-02-22T11:51:44;102101.97;;;0.04;65.23
50380;BME280;37474;59.468;18.040;2023-02-22T11:54:43;102105.81;;;0.35;62.31
50380;BME280;37474;59.468;18.040;2023-02-22T11:57:29;102104.06;;;0.33;62.09
50380;BME280;37474;59.468;18.040;2023-02-22T12:00:13;102097.72;;;0.02;63.12
50380;BME280;37474;59.468;18.040;2023-02-22T12:02:59;102077.63;;;0.28;61.35
50380;BME280;37474;59.468;18.040;2023-02-22T12:05:58;102096.28;;;0.96;60.51
50380;BME280;37474;59.468;18.040;2023-02-22T12:08:41;102091.25;;;1.04;58.83
50380;BME280;37474;59.468;18.040;2023-02-22T12:11:17;102100.00;;;0.45;60.56
50380;BME280;37474;59.468;18.040;2023-02-22T12:13:58;102102.28;;;0.27;62.62
50380;BME280;37474;59.468;18.040;2023-02-22T12:16:38;102101.72;;;-0.14;66.30
50380;BME280;37474;59.468;18.040;2023-02-22T12:19:18;102100.97;;;-0.09;66.36
50380;BME280;37474;59.468;18.040;2023-02-22T12:21:53;102106.06;;;-0.63;69.79
50380;BME280;37474;59.468;18.040;2023-02-22T12:24:24;102098.34;;;-0.68;69.90
50380;BME280;37474;59.468;18.040;2023-02-22T12:26:56;102053.16;;;-0.80;74.14
50380;BME280;37474;59.468;18.040;2023-02-22T12:29:33;102104.72;;;-0.40;69.83
50380;BME280;37474;59.468;18.040;2023-02-22T12:32:07;102096.81;;;-1.07;74.64
50380;BME280;37474;59.468;18.040;2023-02-22T12:34:42;102090.50;;;-0.80;75.13
50380;BME280;37474;59.468;18.040;2023-02-22T12:37:17;102099.28;;;-0.61;75.45
50380;BME280;37474;59.468;18.040;2023-02-22T12:40:00;102101.88;;;-0.60;75.00
50380;BME280;37474;59.468;18.040;2023-02-22T12:42:46;102093.69;;;-0.92;74.88
50380;BME280;37474;59.468;18.040;2023-02-22T12:45:23;102091.34;;;-0.81;74.79
50380;BME280;37474;59.468;18.040;2023-02-22T12:48:19;102086.69;;;-1.03;74.87
50380;BME280;37474;59.468;18.040;2023-02-22T12:50:52;102095.13;;;-1.06;77.18
50380;BME280;37474;59.468;18.040;2023-02-22T12:53:25;102087.66;;;-0.98;77.67
50380;BME280;37474;59.468;18.040;2023-02-22T12:55:59;102085.28;;;-0.88;78.01
50380;BME280;37474;59.468;18.040;2023-02-22T12:58:44;102096.31;;;-0.89;77.77
50380;BME280;37474;59.468;18.040;2023-02-22T13:01:20;102093.00;;;-0.83;77.38
50380;BME280;37474;59.468;18.040;2023-02-22T13:03:54;102096.03;;;-0.54;76.65
50380;BME280;37474;59.468;18.040;2023-02-22T13:06:35;102085.88;;;-0.51;78.05
50380;BME280;37474;59.468;18.040;2023-02-22T13:09:26;102085.97;;;-0.45;76.74